createdAt,value
2018-11-03T00:00:24.454Z,59.33
2018-11-03T00:00:56.546Z,59.23
2018-11-03T00:01:28.611Z,59.33
2018-11-03T00:02:00.692Z,58.92
2018-11-03T00:02:32.777Z,59.23
2018-11-03T00:03:04.890Z,59.33
2018-11-03T00:03:36.970Z,59.33
2018-11-03T00:04:09.049Z,59.33
2018-11-03T00:04:41.109Z,59.05
2018-11-03T00:05:13.200Z,59.33
2018-11-03T00:05:45.264Z,58.95
2018-11-03T00:06:17.346Z,58.95
2018-11-03T00:06:49.682Z,58.95
2018-11-03T00:07:21.966Z,58.95
2018-11-03T00:07:54.212Z,59.14
2018-11-03T00:08:26.465Z,59.14
2018-11-03T00:08:58.648Z,58.56
2018-11-03T00:09:30.770Z,58.76
2018-11-03T00:10:02.854Z,59.05
2018-11-03T00:10:34.921Z,59.14
2018-11-03T00:11:07.013Z,58.95
2018-11-03T00:11:39.092Z,58.95
2018-11-03T00:12:11.176Z,58.95
2018-11-03T00:12:43.413Z,58.86
2018-11-03T00:13:15.738Z,59.05
2018-11-03T00:13:47.824Z,58.95
2018-11-03T00:14:19.905Z,58.86
2018-11-03T00:14:51.985Z,59.05
2018-11-03T00:15:24.053Z,58.86
2018-11-03T00:15:56.125Z,58.76
2018-11-03T00:16:28.205Z,58.56
2018-11-03T00:17:00.269Z,58.76
2018-11-03T00:17:32.341Z,58.95
2018-11-03T00:18:04.422Z,58.95
2018-11-03T00:18:36.499Z,58.86
2018-11-03T00:19:08.570Z,58.76
2018-11-03T00:19:40.632Z,58.86
2018-11-03T00:20:12.721Z,58.95
2018-11-03T00:20:44.808Z,58.76
2018-11-03T00:21:16.872Z,58.95
2018-11-03T00:21:48.946Z,58.47
2018-11-03T00:22:21.017Z,58.86
2018-11-03T00:22:53.109Z,58.86
2018-11-03T00:23:25.184Z,58.56
2018-11-03T00:23:57.248Z,58.95
2018-11-03T00:24:29.341Z,58.95
2018-11-03T00:25:01.433Z,58.76
2018-11-03T00:25:33.726Z,58.95
2018-11-03T00:26:05.806Z,58.66
2018-11-03T00:26:37.875Z,58.66
2018-11-03T00:27:09.974Z,58.56
2018-11-03T00:27:42.043Z,58.66
2018-11-03T00:28:14.119Z,58.76
2018-11-03T00:28:46.198Z,58.56
2018-11-03T00:29:18.290Z,58.76
2018-11-03T00:29:50.384Z,58.76
2018-11-03T00:30:22.464Z,58.86
2018-11-03T00:30:54.554Z,58.37
2018-11-03T00:31:26.634Z,58.37
2018-11-03T00:31:58.680Z,58.66
2018-11-03T00:32:30.772Z,58.98
2018-11-03T00:33:02.842Z,58.86
2018-11-03T00:33:34.931Z,58.76
2018-11-03T00:34:06.973Z,58.66
2018-11-03T00:34:39.049Z,58.76
2018-11-03T00:35:11.125Z,58.56
2018-11-03T00:35:43.233Z,59.05
2018-11-03T00:36:15.286Z,58.56
2018-11-03T00:36:47.380Z,58.95
2018-11-03T00:37:19.508Z,59.05
2018-11-03T00:37:51.590Z,58.66
2018-11-03T00:38:23.665Z,58.47
2018-11-03T00:38:55.746Z,58.76
2018-11-03T00:39:27.809Z,58.79
2018-11-03T00:39:59.913Z,58.56
2018-11-03T00:40:32.035Z,58.76
2018-11-03T00:41:04.173Z,58.18
2018-11-03T00:41:36.278Z,58.56
2018-11-03T00:42:08.353Z,58.76
2018-11-03T00:42:40.457Z,58.66
2018-11-03T00:43:12.511Z,58.66
2018-11-03T00:43:44.576Z,58.76
2018-11-03T00:44:16.651Z,58.66
2018-11-03T00:44:48.748Z,58.47
2018-11-03T00:45:20.835Z,58.28
2018-11-03T00:45:52.906Z,58.28
2018-11-03T00:46:24.995Z,58.47
2018-11-03T00:46:57.090Z,58.28
2018-11-03T00:47:29.157Z,58.47
2018-11-03T00:48:01.229Z,58.47
2018-11-03T00:48:33.295Z,58.09
2018-11-03T00:49:05.369Z,58.56
2018-11-03T00:49:37.438Z,58.28
2018-11-03T00:50:09.505Z,58.18
2018-11-03T00:50:41.564Z,58.37
2018-11-03T00:51:13.659Z,58.47
2018-11-03T00:51:45.749Z,58.47
2018-11-03T00:52:17.831Z,58.47
2018-11-03T00:52:49.906Z,58.28
2018-11-03T00:53:21.984Z,58.09
2018-11-03T00:53:54.077Z,58.47
2018-11-03T00:54:26.385Z,57.99
2018-11-03T00:54:58.463Z,57.99
2018-11-03T00:55:30.537Z,58.18
2018-11-03T00:56:02.612Z,58.18
2018-11-03T00:56:34.682Z,58.18
2018-11-03T00:57:06.771Z,57.9
2018-11-03T00:57:38.792Z,58.09
2018-11-03T00:58:10.896Z,58.37
2018-11-03T00:58:42.964Z,58.09
2018-11-03T00:59:15.050Z,58.18
2018-11-03T00:59:47.129Z,58.37
2018-11-03T01:00:19.212Z,57.99
2018-11-03T01:00:51.300Z,57.99
2018-11-03T01:01:23.381Z,58.37
2018-11-03T01:01:55.481Z,58.37
2018-11-03T01:02:27.544Z,58.37
2018-11-03T01:02:59.612Z,58.28
2018-11-03T01:03:31.706Z,58.37
2018-11-03T01:04:03.794Z,58.18
2018-11-03T01:04:35.870Z,58.18
2018-11-03T01:05:07.938Z,58.37
2018-11-03T01:05:40.037Z,58.37
2018-11-03T01:06:12.163Z,58.28
2018-11-03T01:06:44.263Z,58.56
2018-11-03T01:07:16.340Z,58.28
2018-11-03T01:07:48.410Z,58.37
2018-11-03T01:08:20.489Z,58.18
2018-11-03T01:08:52.568Z,58.37
2018-11-03T01:09:24.621Z,58.18
2018-11-03T01:09:56.991Z,58.56
2018-11-03T01:10:29.082Z,58.09
2018-11-03T01:11:01.158Z,58.09
2018-11-03T01:11:33.212Z,58.09
2018-11-03T01:12:05.321Z,58.47
2018-11-03T01:12:37.401Z,58.28
2018-11-03T01:13:09.478Z,57.9
2018-11-03T01:13:41.566Z,58.09
2018-11-03T01:14:13.645Z,58.18
2018-11-03T01:14:45.718Z,58.18
2018-11-03T01:15:17.816Z,58.18
2018-11-03T01:15:49.894Z,58.09
2018-11-03T01:16:21.991Z,58.09
2018-11-03T01:16:54.081Z,58.18
2018-11-03T01:17:26.159Z,58.18
2018-11-03T01:17:58.227Z,58.09
2018-11-03T01:18:30.323Z,58.18
2018-11-03T01:19:02.416Z,58.18
2018-11-03T01:19:34.493Z,58.18
2018-11-03T01:20:06.582Z,58.18
2018-11-03T01:20:38.658Z,58.09
2018-11-03T01:21:10.743Z,58.09
2018-11-03T01:21:42.822Z,58.18
2018-11-03T01:22:15.181Z,58.09
2018-11-03T01:22:47.273Z,58.18
2018-11-03T01:23:19.356Z,57.99
2018-11-03T01:23:51.466Z,58.28
2018-11-03T01:24:23.706Z,58.09
2018-11-03T01:24:55.803Z,58.09
2018-11-03T01:25:27.848Z,58.09
2018-11-03T01:25:59.928Z,58.18
2018-11-03T01:26:31.999Z,58.18
2018-11-03T01:27:04.073Z,58.09
2018-11-03T01:27:36.157Z,58.09
2018-11-03T01:28:08.230Z,58.18
2018-11-03T01:28:40.293Z,58.18
2018-11-03T01:29:12.370Z,58.18
2018-11-03T01:29:44.447Z,58.09
2018-11-03T01:30:16.526Z,58.09
2018-11-03T01:30:48.588Z,58.09
2018-11-03T01:31:20.645Z,58.09
2018-11-03T01:31:52.721Z,58.18
2018-11-03T01:32:24.949Z,58.09
2018-11-03T01:32:57.021Z,58.18
2018-11-03T01:33:29.101Z,58.06
2018-11-03T01:34:01.159Z,58.09
2018-11-03T01:34:33.237Z,58.09
2018-11-03T01:35:05.325Z,58.18
2018-11-03T01:35:37.416Z,58.09
2018-11-03T01:36:09.504Z,57.99
2018-11-03T01:36:41.599Z,58.15
2018-11-03T01:37:13.681Z,58.06
2018-11-03T01:37:45.752Z,58.18
2018-11-03T01:38:17.826Z,58.09
2018-11-03T01:38:50.795Z,58.18
2018-11-03T01:39:22.886Z,58.06
2018-11-03T01:39:54.972Z,58.06
2018-11-03T01:40:27.037Z,58.06
2018-11-03T01:40:59.117Z,57.99
2018-11-03T01:41:31.197Z,57.97
2018-11-03T01:42:03.260Z,58.15
2018-11-03T01:42:35.337Z,58.06
2018-11-03T01:43:07.401Z,58.06
2018-11-03T01:43:39.472Z,58.06
2018-11-03T01:44:11.561Z,58.15
2018-11-03T01:44:43.664Z,58.06
2018-11-03T01:45:15.723Z,58.06
2018-11-03T01:45:47.820Z,58.06
2018-11-03T01:46:19.923Z,58.06
2018-11-03T01:46:52.011Z,58.15
2018-11-03T01:47:24.084Z,58.15
2018-11-03T01:47:56.144Z,58.25
2018-11-03T01:48:28.233Z,57.97
2018-11-03T01:49:00.307Z,57.97
2018-11-03T01:49:32.379Z,57.87
2018-11-03T01:50:04.442Z,57.87
2018-11-03T01:50:36.539Z,58.15
2018-11-03T01:51:08.604Z,58.15
2018-11-03T01:51:40.690Z,58.06
2018-11-03T01:52:12.973Z,58.15
2018-11-03T01:52:45.050Z,58.06
2018-11-03T01:53:17.460Z,57.87
2018-11-03T01:53:49.539Z,58.15
2018-11-03T01:54:21.617Z,58.15
2018-11-03T01:54:53.712Z,58.15
2018-11-03T01:55:25.792Z,57.77
2018-11-03T01:55:57.865Z,58.06
2018-11-03T01:56:29.917Z,58.15
2018-11-03T01:57:01.989Z,57.68
2018-11-03T01:57:34.053Z,58.15
2018-11-03T01:58:06.148Z,57.87
2018-11-03T01:58:38.207Z,57.77
2018-11-03T01:59:10.290Z,58.15
2018-11-03T01:59:42.365Z,57.77
2018-11-03T02:00:14.416Z,58.25
2018-11-03T02:00:46.509Z,58.15
2018-11-03T02:01:18.578Z,57.97
2018-11-03T02:01:50.654Z,57.77
2018-11-03T02:02:22.749Z,58.15
2018-11-03T02:02:54.819Z,57.97
2018-11-03T02:03:26.870Z,58.06
2018-11-03T02:03:58.937Z,57.97
2018-11-03T02:04:31.021Z,58.15
2018-11-03T02:05:03.043Z,58.06
2018-11-03T02:05:35.113Z,58.06
2018-11-03T02:06:07.176Z,57.77
2018-11-03T02:06:39.304Z,58.15
2018-11-03T02:07:11.377Z,57.97
2018-11-03T02:07:43.466Z,57.77
2018-11-03T02:08:15.547Z,57.87
2018-11-03T02:08:49.296Z,58.25
2018-11-03T02:09:21.389Z,57.77
2018-11-03T02:09:53.482Z,57.77
2018-11-03T02:10:25.549Z,57.87
2018-11-03T02:10:57.615Z,57.87
2018-11-03T02:11:29.695Z,58.06
2018-11-03T02:12:01.780Z,57.68
2018-11-03T02:12:33.859Z,57.58
2018-11-03T02:13:05.951Z,57.58
2018-11-03T02:13:38.034Z,57.97
2018-11-03T02:14:10.108Z,57.87
2018-11-03T02:14:42.197Z,58.06
2018-11-03T02:15:14.243Z,58.06
2018-11-03T02:15:46.316Z,57.87
2018-11-03T02:16:18.405Z,57.87
2018-11-03T02:16:50.472Z,57.87
2018-11-03T02:17:22.553Z,57.87
2018-11-03T02:17:54.620Z,57.87
2018-11-03T02:18:26.695Z,57.87
2018-11-03T02:18:58.765Z,57.77
2018-11-03T02:19:30.855Z,58.06
2018-11-03T02:20:02.937Z,57.68
2018-11-03T02:20:35.015Z,57.77
2018-11-03T02:21:07.110Z,57.87
2018-11-03T02:21:39.193Z,57.68
2018-11-03T02:22:11.301Z,57.68
2018-11-03T02:22:43.395Z,57.87
2018-11-03T02:23:15.472Z,57.97
2018-11-03T02:23:47.528Z,57.77
2018-11-03T02:24:19.829Z,57.87
2018-11-03T02:24:51.887Z,57.77
2018-11-03T02:25:23.974Z,57.68
2018-11-03T02:25:56.056Z,57.68
2018-11-03T02:26:28.131Z,57.77
2018-11-03T02:27:00.180Z,57.68
2018-11-03T02:27:32.272Z,57.77
2018-11-03T02:28:04.353Z,57.77
2018-11-03T02:28:36.428Z,57.87
2018-11-03T02:29:08.488Z,57.58
2018-11-03T02:29:40.562Z,57.68
2018-11-03T02:30:12.640Z,57.87
2018-11-03T02:30:44.723Z,57.77
2018-11-03T02:31:16.786Z,57.77
2018-11-03T02:31:48.880Z,57.77
2018-11-03T02:32:20.963Z,57.77
2018-11-03T02:32:53.053Z,57.68
2018-11-03T02:33:25.146Z,57.68
2018-11-03T02:33:57.223Z,57.87
2018-11-03T02:34:29.310Z,57.58
2018-11-03T02:35:01.390Z,57.77
2018-11-03T02:35:33.481Z,57.77
2018-11-03T02:36:05.556Z,57.77
2018-11-03T02:36:37.640Z,57.68
2018-11-03T02:37:09.698Z,57.68
2018-11-03T02:37:41.771Z,57.97
2018-11-03T02:38:13.849Z,57.68
2018-11-03T02:38:45.961Z,57.87
2018-11-03T02:39:17.981Z,57.77
2018-11-03T02:39:50.059Z,57.77
2018-11-03T02:40:22.142Z,57.87
2018-11-03T02:40:54.212Z,57.77
2018-11-03T02:41:26.356Z,57.68
2018-11-03T02:41:58.454Z,57.87
2018-11-03T02:42:30.483Z,57.87
2018-11-03T02:43:02.547Z,57.87
2018-11-03T02:43:34.645Z,57.77
2018-11-03T02:44:06.703Z,57.87
2018-11-03T02:44:38.748Z,57.77
2018-11-03T02:45:10.823Z,57.77
2018-11-03T02:45:42.894Z,57.77
2018-11-03T02:46:14.979Z,57.58
2018-11-03T02:46:47.075Z,57.97
2018-11-03T02:47:19.125Z,57.77
2018-11-03T02:47:51.199Z,57.77
2018-11-03T02:48:23.264Z,57.77
2018-11-03T02:48:55.328Z,57.68
2018-11-03T02:49:27.442Z,57.58
2018-11-03T02:49:59.492Z,57.68
2018-11-03T02:50:31.561Z,57.87
2018-11-03T02:51:03.631Z,57.87
2018-11-03T02:51:35.716Z,57.77
2018-11-03T02:52:07.813Z,57.77
2018-11-03T02:52:39.871Z,57.77
2018-11-03T02:53:11.957Z,57.68
2018-11-03T02:53:44.064Z,57.77
2018-11-03T02:54:16.349Z,57.77
2018-11-03T02:54:48.419Z,57.77
2018-11-03T02:55:20.514Z,57.77
2018-11-03T02:55:52.597Z,57.77
2018-11-03T02:56:24.675Z,57.58
2018-11-03T02:56:56.758Z,57.68
2018-11-03T02:57:28.832Z,57.87
2018-11-03T02:58:00.923Z,57.77
2018-11-03T02:58:32.987Z,57.77
2018-11-03T02:59:05.069Z,57.77
2018-11-03T02:59:37.158Z,57.77
2018-11-03T03:00:09.230Z,57.77
2018-11-03T03:00:41.317Z,57.68
2018-11-03T03:01:13.382Z,57.68
2018-11-03T03:01:45.448Z,57.87
2018-11-03T03:02:17.532Z,57.77
2018-11-03T03:02:49.615Z,57.77
2018-11-03T03:03:21.686Z,57.87
2018-11-03T03:03:53.734Z,57.77
2018-11-03T03:04:25.809Z,57.68
2018-11-03T03:04:57.873Z,57.68
2018-11-03T03:05:29.986Z,57.77
2018-11-03T03:06:02.053Z,57.87
2018-11-03T03:06:34.986Z,57.87
2018-11-03T03:07:07.364Z,57.77
2018-11-03T03:07:39.433Z,57.87
2018-11-03T03:08:11.502Z,57.65
2018-11-03T03:08:43.832Z,57.77
2018-11-03T03:09:15.917Z,57.77
2018-11-03T03:09:47.996Z,57.65
2018-11-03T03:10:20.105Z,57.68
2018-11-03T03:10:52.179Z,57.75
2018-11-03T03:11:24.252Z,57.55
2018-11-03T03:11:56.350Z,57.87
2018-11-03T03:12:28.420Z,57.87
2018-11-03T03:13:00.513Z,57.75
2018-11-03T03:13:32.601Z,57.65
2018-11-03T03:14:04.677Z,57.65
2018-11-03T03:14:36.751Z,57.84
2018-11-03T03:15:08.813Z,57.65
2018-11-03T03:15:40.895Z,57.65
2018-11-03T03:16:12.976Z,57.75
2018-11-03T03:16:45.074Z,57.75
2018-11-03T03:17:17.177Z,57.68
2018-11-03T03:17:49.256Z,57.75
2018-11-03T03:18:21.352Z,57.68
2018-11-03T03:18:53.450Z,57.55
2018-11-03T03:19:25.527Z,57.68
2018-11-03T03:19:57.594Z,57.48
2018-11-03T03:20:29.644Z,57.75
2018-11-03T03:21:01.737Z,57.77
2018-11-03T03:21:34.030Z,57.97
2018-11-03T03:22:06.115Z,57.68
2018-11-03T03:22:38.190Z,57.65
2018-11-03T03:23:10.273Z,57.75
2018-11-03T03:23:42.352Z,57.65
2018-11-03T03:24:14.439Z,57.68
2018-11-03T03:24:46.526Z,57.68
2018-11-03T03:25:18.600Z,57.55
2018-11-03T03:25:50.689Z,57.68
2018-11-03T03:26:22.771Z,57.68
2018-11-03T03:26:54.850Z,57.58
2018-11-03T03:27:26.927Z,57.48
2018-11-03T03:27:58.997Z,57.39
2018-11-03T03:28:31.085Z,57.58
2018-11-03T03:29:03.188Z,57.58
2018-11-03T03:29:35.632Z,57.68
2018-11-03T03:30:07.626Z,57.58
2018-11-03T03:30:39.724Z,57.58
2018-11-03T03:31:11.799Z,57.68
2018-11-03T03:31:43.907Z,57.39
2018-11-03T03:32:15.956Z,57.39
2018-11-03T03:32:48.035Z,57.68
2018-11-03T03:33:20.099Z,57.29
2018-11-03T03:33:52.174Z,57.58
2018-11-03T03:34:24.249Z,57.68
2018-11-03T03:34:56.327Z,57.48
2018-11-03T03:35:28.621Z,57.48
2018-11-03T03:36:00.699Z,57.48
2018-11-03T03:36:32.776Z,57.48
2018-11-03T03:37:04.861Z,57.29
2018-11-03T03:37:36.943Z,57.2
2018-11-03T03:38:09.010Z,57.29
2018-11-03T03:38:41.101Z,57.48
2018-11-03T03:39:13.168Z,57.39
2018-11-03T03:39:45.245Z,57.29
2018-11-03T03:40:17.320Z,57.2
2018-11-03T03:40:49.400Z,57.39
2018-11-03T03:41:21.461Z,57.29
2018-11-03T03:41:53.527Z,57.1
2018-11-03T03:42:25.609Z,57.2
2018-11-03T03:42:57.697Z,57.2
2018-11-03T03:43:29.782Z,57.48
2018-11-03T03:44:01.855Z,57.1
2018-11-03T03:44:33.932Z,57.1
2018-11-03T03:45:06.013Z,57.1
2018-11-03T03:45:38.093Z,57.1
2018-11-03T03:46:10.179Z,57.29
2018-11-03T03:46:42.277Z,57.1
2018-11-03T03:47:14.348Z,57.1
2018-11-03T03:47:46.429Z,57.58
2018-11-03T03:48:18.520Z,57.1
2018-11-03T03:48:50.591Z,57.01
2018-11-03T03:49:22.661Z,57.58
2018-11-03T03:49:54.941Z,57.01
2018-11-03T03:50:26.979Z,57.29
2018-11-03T03:50:59.055Z,57.29
2018-11-03T03:51:31.176Z,57.29
2018-11-03T03:52:03.250Z,57.48
2018-11-03T03:52:35.313Z,57.2
2018-11-03T03:53:07.391Z,57.29
2018-11-03T03:53:39.459Z,57.01
2018-11-03T03:54:11.534Z,57.29
2018-11-03T03:54:43.617Z,57.32
2018-11-03T03:55:15.676Z,57.32
2018-11-03T03:55:47.762Z,57.23
2018-11-03T03:56:19.853Z,57.23
2018-11-03T03:56:51.939Z,57.32
2018-11-03T03:57:24.013Z,57.32
2018-11-03T03:57:56.090Z,57.32
2018-11-03T03:58:28.189Z,56.94
2018-11-03T03:59:00.260Z,57.32
2018-11-03T03:59:32.359Z,57.29
2018-11-03T04:00:04.415Z,57.32
2018-11-03T04:00:36.504Z,57.23
2018-11-03T04:01:08.577Z,57.04
2018-11-03T04:01:40.657Z,57.04
2018-11-03T04:02:12.742Z,56.94
2018-11-03T04:02:44.838Z,56.94
2018-11-03T04:03:16.913Z,56.94
2018-11-03T04:03:48.974Z,57.42
2018-11-03T04:04:21.059Z,57.42
2018-11-03T04:04:53.137Z,57.01
2018-11-03T04:05:25.232Z,56.94
2018-11-03T04:05:57.310Z,57.04
2018-11-03T04:06:29.433Z,56.75
2018-11-03T04:07:01.446Z,57.04
2018-11-03T04:07:33.534Z,56.94
2018-11-03T04:08:05.618Z,57.13
2018-11-03T04:08:37.670Z,56.75
2018-11-03T04:09:09.757Z,56.84
2018-11-03T04:09:41.853Z,57.04
2018-11-03T04:10:13.922Z,57.04
2018-11-03T04:10:45.998Z,56.75
2018-11-03T04:11:18.071Z,56.94
2018-11-03T04:11:50.150Z,56.84
2018-11-03T04:12:22.258Z,56.94
2018-11-03T04:12:54.300Z,56.65
2018-11-03T04:13:26.357Z,56.94
2018-11-03T04:13:58.443Z,56.84
2018-11-03T04:14:30.533Z,56.84
2018-11-03T04:15:02.623Z,56.94
2018-11-03T04:15:34.696Z,56.65
2018-11-03T04:16:06.782Z,56.84
2018-11-03T04:16:38.861Z,56.84
2018-11-03T04:17:10.938Z,56.84
2018-11-03T04:17:43.026Z,56.75
2018-11-03T04:18:15.098Z,56.56
2018-11-03T04:18:47.176Z,56.56
2018-11-03T04:19:19.243Z,56.75
2018-11-03T04:19:51.289Z,56.75
2018-11-03T04:20:23.390Z,56.75
2018-11-03T04:20:55.440Z,56.46
2018-11-03T04:21:27.490Z,56.75
2018-11-03T04:21:59.563Z,56.56
2018-11-03T04:22:31.631Z,56.56
2018-11-03T04:23:03.706Z,56.75
2018-11-03T04:23:35.780Z,56.75
2018-11-03T04:24:07.871Z,56.84
2018-11-03T04:24:39.940Z,56.56
2018-11-03T04:25:12.028Z,56.65
2018-11-03T04:25:44.113Z,56.56
2018-11-03T04:26:16.203Z,56.65
2018-11-03T04:26:48.290Z,56.56
2018-11-03T04:27:20.359Z,56.75
2018-11-03T04:27:52.446Z,56.56
2018-11-03T04:28:24.526Z,56.56
2018-11-03T04:28:56.570Z,56.75
2018-11-03T04:29:28.630Z,56.75
2018-11-03T04:30:00.727Z,56.65
2018-11-03T04:30:32.813Z,56.75
2018-11-03T04:31:04.876Z,56.56
2018-11-03T04:31:36.951Z,56.65
2018-11-03T04:32:09.028Z,56.75
2018-11-03T04:32:41.103Z,56.56
2018-11-03T04:33:13.159Z,56.56
2018-11-03T04:33:45.259Z,56.75
2018-11-03T04:34:17.333Z,56.75
2018-11-03T04:34:49.413Z,56.75
2018-11-03T04:35:21.464Z,56.65
2018-11-03T04:35:53.526Z,56.72
2018-11-03T04:36:25.607Z,56.75
2018-11-03T04:36:57.697Z,56.72
2018-11-03T04:37:29.784Z,56.62
2018-11-03T04:38:01.873Z,56.72
2018-11-03T04:38:33.956Z,56.53
2018-11-03T04:39:06.025Z,56.56
2018-11-03T04:39:38.093Z,56.62
2018-11-03T04:40:10.161Z,56.53
2018-11-03T04:40:42.236Z,56.53
2018-11-03T04:41:14.317Z,56.72
2018-11-03T04:41:46.415Z,56.62
2018-11-03T04:42:18.513Z,56.72
2018-11-03T04:42:50.591Z,56.53
2018-11-03T04:43:22.669Z,56.72
2018-11-03T04:43:54.757Z,56.56
2018-11-03T04:44:26.841Z,56.53
2018-11-03T04:44:58.911Z,56.53
2018-11-03T04:45:31.121Z,56.62
2018-11-03T04:46:03.075Z,56.62
2018-11-03T04:46:35.169Z,56.72
2018-11-03T04:47:07.223Z,56.72
2018-11-03T04:47:39.309Z,56.72
2018-11-03T04:48:11.389Z,56.72
2018-11-03T04:48:43.464Z,56.53
2018-11-03T04:49:15.536Z,56.72
2018-11-03T04:49:47.616Z,56.72
2018-11-03T04:50:19.692Z,56.72
2018-11-03T04:50:51.787Z,56.72
2018-11-03T04:51:23.853Z,56.53
2018-11-03T04:51:55.938Z,56.72
2018-11-03T04:52:28.001Z,56.72
2018-11-03T04:53:00.093Z,56.53
2018-11-03T04:53:32.166Z,56.53
2018-11-03T04:54:04.258Z,56.34
2018-11-03T04:54:36.309Z,56.34
2018-11-03T04:55:08.459Z,56.34
2018-11-03T04:55:40.671Z,56.53
2018-11-03T04:56:12.754Z,56.43
2018-11-03T04:56:44.840Z,56.43
2018-11-03T04:57:16.930Z,56.53
2018-11-03T04:57:49.103Z,56.53
2018-11-03T04:58:21.189Z,56.53
2018-11-03T04:58:53.283Z,56.15
2018-11-03T04:59:25.357Z,56.62
2018-11-03T04:59:57.441Z,56.53
2018-11-03T05:00:29.535Z,56.53
2018-11-03T05:01:01.621Z,56.05
2018-11-03T05:01:33.721Z,56.53
2018-11-03T05:02:05.804Z,56.72
2018-11-03T05:02:37.860Z,56.53
2018-11-03T05:03:09.936Z,56.53
2018-11-03T05:03:42.001Z,56.43
2018-11-03T05:04:14.086Z,56.53
2018-11-03T05:04:46.156Z,56.53
2018-11-03T05:05:18.245Z,56.34
2018-11-03T05:05:50.317Z,56.53
2018-11-03T05:06:22.410Z,56.34
2018-11-03T05:06:54.507Z,56.43
2018-11-03T05:07:26.584Z,56.24
2018-11-03T05:07:58.664Z,56.34
2018-11-03T05:08:30.727Z,56.34
2018-11-03T05:09:02.807Z,56.15
2018-11-03T05:09:34.888Z,56.34
2018-11-03T05:10:06.980Z,56.62
2018-11-03T05:10:39.012Z,56.24
2018-11-03T05:11:11.082Z,56.53
2018-11-03T05:11:43.172Z,56.53
2018-11-03T05:12:15.243Z,56.24
2018-11-03T05:12:47.323Z,56.24
2018-11-03T05:13:19.409Z,56.53
2018-11-03T05:13:51.486Z,56.15
2018-11-03T05:14:23.575Z,56.34
2018-11-03T05:14:55.665Z,56.15
2018-11-03T05:15:27.761Z,56.34
2018-11-03T05:15:59.885Z,56.15
2018-11-03T05:16:31.926Z,56.53
2018-11-03T05:17:04.001Z,56.15
2018-11-03T05:17:36.087Z,56.43
2018-11-03T05:18:08.161Z,56.24
2018-11-03T05:18:40.245Z,56.24
2018-11-03T05:19:12.324Z,56.53
2018-11-03T05:19:44.420Z,56.24
2018-11-03T05:20:16.503Z,56.34
2018-11-03T05:20:48.572Z,56.34
2018-11-03T05:21:20.704Z,56.34
2018-11-03T05:21:52.753Z,56.34
2018-11-03T05:22:24.827Z,56.43
2018-11-03T05:22:56.897Z,56.05
2018-11-03T05:23:28.985Z,56.34
2018-11-03T05:24:01.060Z,56.53
2018-11-03T05:24:33.139Z,56.05
2018-11-03T05:25:05.219Z,56.15
2018-11-03T05:25:37.319Z,56.34
2018-11-03T05:26:09.399Z,56.43
2018-11-03T05:26:41.496Z,56.15
2018-11-03T05:27:13.581Z,56.43
2018-11-03T05:27:45.826Z,56.34
2018-11-03T05:28:17.876Z,56.53
2018-11-03T05:28:49.955Z,56.53
2018-11-03T05:29:22.048Z,56.62
2018-11-03T05:29:54.118Z,56.43
2018-11-03T05:30:26.187Z,56.24
2018-11-03T05:30:58.328Z,56.43
2018-11-03T05:31:30.350Z,56.53
2018-11-03T05:32:02.431Z,56.43
2018-11-03T05:32:34.534Z,56.05
2018-11-03T05:33:06.609Z,56.15
2018-11-03T05:33:38.691Z,56.43
2018-11-03T05:34:10.750Z,56.43
2018-11-03T05:34:42.823Z,56.15
2018-11-03T05:35:14.891Z,56.43
2018-11-03T05:35:46.991Z,56.34
2018-11-03T05:36:19.071Z,56.53
2018-11-03T05:36:51.146Z,56.43
2018-11-03T05:37:23.232Z,56.24
2018-11-03T05:37:55.321Z,56.34
2018-11-03T05:38:27.397Z,56.24
2018-11-03T05:38:59.487Z,56.34
2018-11-03T05:39:31.578Z,56.43
2018-11-03T05:40:03.663Z,56.24
2018-11-03T05:40:35.753Z,56.34
2018-11-03T05:41:07.837Z,56.34
2018-11-03T05:41:39.896Z,56.24
2018-11-03T05:42:11.968Z,56.24
2018-11-03T05:42:44.040Z,56.34
2018-11-03T05:43:16.138Z,56.34
2018-11-03T05:43:48.217Z,56.43
2018-11-03T05:44:20.298Z,56.43
2018-11-03T05:44:52.365Z,56.24
2018-11-03T05:45:24.435Z,56.34
2018-11-03T05:45:56.519Z,56.24
2018-11-03T05:46:28.792Z,56.24
2018-11-03T05:47:00.759Z,56.34
2018-11-03T05:47:32.851Z,56.24
2018-11-03T05:48:04.992Z,56.34
2018-11-03T05:48:37.012Z,56.24
2018-11-03T05:49:09.057Z,56.15
2018-11-03T05:49:41.140Z,56.15
2018-11-03T05:50:13.222Z,56.15
2018-11-03T05:50:45.306Z,56.24
2018-11-03T05:51:17.349Z,56.24
2018-11-03T05:51:49.447Z,56.24
2018-11-03T05:52:21.572Z,56.34
2018-11-03T05:52:53.607Z,56.34
2018-11-03T05:53:25.690Z,56.34
2018-11-03T05:53:57.758Z,56.05
2018-11-03T05:54:29.833Z,56.05
2018-11-03T05:55:01.922Z,56.05
2018-11-03T05:55:33.991Z,56.15
2018-11-03T05:56:06.082Z,56.15
2018-11-03T05:56:38.163Z,56.15
2018-11-03T05:57:10.228Z,55.96
2018-11-03T05:57:42.309Z,56.15
2018-11-03T05:58:14.379Z,56.05
2018-11-03T05:58:46.472Z,55.96
2018-11-03T05:59:18.542Z,56.05
2018-11-03T05:59:50.620Z,56.05
2018-11-03T06:00:22.715Z,56.24
2018-11-03T06:00:54.784Z,55.67
2018-11-03T06:01:26.866Z,55.67
2018-11-03T06:01:58.943Z,55.86
2018-11-03T06:02:31.022Z,56.15
2018-11-03T06:03:03.093Z,55.76
2018-11-03T06:03:35.139Z,55.96
2018-11-03T06:04:07.237Z,55.76
2018-11-03T06:04:39.310Z,55.96
2018-11-03T06:05:11.403Z,55.57
2018-11-03T06:05:43.480Z,56.05
2018-11-03T06:06:15.576Z,55.96
2018-11-03T06:06:47.663Z,56.05
2018-11-03T06:07:19.729Z,55.67
2018-11-03T06:07:51.802Z,55.96
2018-11-03T06:08:23.873Z,55.96
2018-11-03T06:08:56.121Z,55.96
2018-11-03T06:09:28.059Z,56.05
2018-11-03T06:10:00.134Z,55.57
2018-11-03T06:10:32.215Z,55.67
2018-11-03T06:11:04.304Z,56.05
2018-11-03T06:11:36.393Z,55.96
2018-11-03T06:12:08.755Z,56.34
2018-11-03T06:12:40.862Z,55.57
2018-11-03T06:13:13.152Z,55.96
2018-11-03T06:13:45.246Z,56.05
2018-11-03T06:14:17.321Z,56.24
2018-11-03T06:14:49.392Z,56.05
2018-11-03T06:15:21.468Z,56.24
2018-11-03T06:15:53.553Z,56.05
2018-11-03T06:16:25.628Z,56.05
2018-11-03T06:16:57.679Z,56.05
2018-11-03T06:17:29.745Z,56.05
2018-11-03T06:18:01.827Z,56.43
2018-11-03T06:18:33.921Z,56.34
2018-11-03T06:19:05.994Z,56.34
2018-11-03T06:19:38.072Z,55.96
2018-11-03T06:20:10.136Z,56.05
2018-11-03T06:20:42.228Z,56.43
2018-11-03T06:21:14.297Z,56.43
2018-11-03T06:21:46.371Z,55.96
2018-11-03T06:22:18.457Z,56.05
2018-11-03T06:22:50.555Z,55.96
2018-11-03T06:23:22.639Z,56.43
2018-11-03T06:23:54.698Z,56.15
2018-11-03T06:24:26.772Z,55.96
2018-11-03T06:24:58.809Z,55.96
2018-11-03T06:25:30.894Z,56.05
2018-11-03T06:26:02.986Z,56.05
2018-11-03T06:26:35.073Z,56.05
2018-11-03T06:27:07.126Z,56.05
2018-11-03T06:27:39.217Z,56.43
2018-11-03T06:28:11.338Z,56.05
2018-11-03T06:28:43.354Z,55.96
2018-11-03T06:29:15.436Z,56.24
2018-11-03T06:29:47.510Z,56.53
2018-11-03T06:30:19.580Z,56.53
2018-11-03T06:30:51.655Z,56.34
2018-11-03T06:31:23.738Z,56.15
2018-11-03T06:31:55.817Z,55.96
2018-11-03T06:32:27.906Z,56.53
2018-11-03T06:32:59.993Z,56.43
2018-11-03T06:33:32.091Z,56.24
2018-11-03T06:34:04.167Z,56.15
2018-11-03T06:34:36.282Z,55.96
2018-11-03T06:35:08.454Z,56.05
2018-11-03T06:35:40.470Z,56.24
2018-11-03T06:36:12.540Z,55.67
2018-11-03T06:36:44.629Z,56.24
2018-11-03T06:37:16.719Z,56.15
2018-11-03T06:37:48.778Z,56.15
2018-11-03T06:38:20.862Z,55.67
2018-11-03T06:38:53.009Z,56.05
2018-11-03T06:39:25.022Z,56.15
2018-11-03T06:39:57.114Z,55.96
2018-11-03T06:40:29.212Z,55.86
2018-11-03T06:41:01.331Z,56.05
2018-11-03T06:41:33.409Z,55.96
2018-11-03T06:42:05.493Z,56.05
2018-11-03T06:42:37.558Z,56.15
2018-11-03T06:43:09.661Z,56.05
2018-11-03T06:43:41.740Z,55.67
2018-11-03T06:44:13.828Z,55.86
2018-11-03T06:44:45.922Z,55.96
2018-11-03T06:45:17.994Z,55.47
2018-11-03T06:45:50.082Z,55.76
2018-11-03T06:46:22.190Z,55.47
2018-11-03T06:46:54.401Z,55.38
2018-11-03T06:47:26.617Z,55.19
2018-11-03T06:47:58.573Z,55.76
2018-11-03T06:48:30.658Z,55.76
2018-11-03T06:49:02.741Z,55.47
2018-11-03T06:49:34.834Z,55.67
2018-11-03T06:50:06.921Z,55.67
2018-11-03T06:50:39.008Z,55.47
2018-11-03T06:51:11.054Z,55.76
2018-11-03T06:51:43.127Z,55.57
2018-11-03T06:52:15.317Z,55.47
2018-11-03T06:52:47.274Z,55.67
2018-11-03T06:53:19.370Z,55.47
2018-11-03T06:53:51.433Z,55.19